createdAt,value
2019-05-06T00:01:04.770Z,7.87
2019-05-06T00:03:34.399Z,8.00
2019-05-06T00:06:04.033Z,7.37
2019-05-06T00:08:34.536Z,9.47
2019-05-06T00:11:04.886Z,8.30
2019-05-06T00:13:34.435Z,8.53
2019-05-06T00:16:03.931Z,6.93
2019-05-06T00:18:34.218Z,8.40
2019-05-06T00:21:04.612Z,8.17
2019-05-06T00:23:38.657Z,9.30
2019-05-06T00:26:25.280Z,8.40
2019-05-06T00:28:57.385Z,7.70
2019-05-06T00:31:26.437Z,8.03
2019-05-06T00:33:55.558Z,7.63
2019-05-06T00:36:24.470Z,7.37
2019-05-06T00:38:56.319Z,8.37
2019-05-06T00:41:30.752Z,7.80
2019-05-06T00:43:59.860Z,7.50
2019-05-06T00:46:28.930Z,6.90
2019-05-06T00:48:58.079Z,8.40
2019-05-06T00:51:27.227Z,7.40
2019-05-06T00:54:03.848Z,8.97
2019-05-06T00:56:34.089Z,7.53
2019-05-06T00:59:03.731Z,8.60
2019-05-06T01:01:34.514Z,7.33
2019-05-06T01:04:04.960Z,7.87
2019-05-06T01:06:34.599Z,7.87
2019-05-06T01:09:04.548Z,7.17
2019-05-06T01:11:34.604Z,8.00
2019-05-06T01:14:11.293Z,8.07
2019-05-06T01:16:40.363Z,7.50
2019-05-06T01:19:09.393Z,7.27
2019-05-06T01:21:38.521Z,8.00
2019-05-06T01:24:07.481Z,7.50
2019-05-06T01:26:36.549Z,7.20
2019-05-06T01:29:05.544Z,8.33
2019-05-06T01:31:42.778Z,6.97
2019-05-06T01:34:05.504Z,8.43
2019-05-06T01:36:34.577Z,7.43
2019-05-06T01:39:21.069Z,7.70
2019-05-06T01:41:59.225Z,8.03
2019-05-06T01:44:28.236Z,8.10
2019-05-06T01:46:57.247Z,7.97
2019-05-06T01:49:26.293Z,7.50
2019-05-06T01:51:55.397Z,8.67
2019-05-06T01:54:25.019Z,8.07
2019-05-06T01:56:54.627Z,8.60
2019-05-06T01:59:24.612Z,8.80
2019-05-06T02:02:00.121Z,8.30
2019-05-06T02:04:24.599Z,8.27
2019-05-06T02:06:54.590Z,8.13
2019-05-06T02:09:24.702Z,8.57
2019-05-06T02:11:53.991Z,8.53
2019-05-06T02:14:24.643Z,8.40
2019-05-06T02:16:54.644Z,8.77
2019-05-06T02:19:24.248Z,8.10
2019-05-06T02:22:15.280Z,7.90
2019-05-06T02:24:56.854Z,7.40
2019-05-06T02:27:25.957Z,8.00
2019-05-06T02:30:17.824Z,8.53
2019-05-06T02:33:04.196Z,7.60
2019-05-06T02:35:39.474Z,8.23
2019-05-06T02:38:26.778Z,8.03
2019-05-06T02:40:53.893Z,7.73
2019-05-06T02:43:23.399Z,7.77
2019-05-06T02:45:53.209Z,8.33
2019-05-06T02:48:39.180Z,7.50
2019-05-06T02:51:13.364Z,7.70
2019-05-06T02:53:42.942Z,8.67
2019-05-06T02:56:13.405Z,7.60
2019-05-06T02:58:43.724Z,7.30
2019-05-06T03:01:13.586Z,7.73
2019-05-06T03:03:43.539Z,8.30
2019-05-06T03:06:13.369Z,9.10
2019-05-06T03:08:43.442Z,8.10
2019-05-06T03:11:13.834Z,8.30
2019-05-06T03:13:43.961Z,8.20
2019-05-06T03:16:14.215Z,8.90
2019-05-06T03:18:43.583Z,8.53
2019-05-06T03:21:37.143Z,7.83
2019-05-06T03:24:23.686Z,7.30
2019-05-06T03:26:56.937Z,8.27
2019-05-06T03:29:25.428Z,8.60
2019-05-06T03:31:56.220Z,7.87
2019-05-06T03:34:48.843Z,7.70
2019-05-06T03:36:56.977Z,8.60
2019-05-06T03:39:26.451Z,7.83
2019-05-06T03:41:55.442Z,7.73
2019-05-06T03:44:24.433Z,7.07
2019-05-06T03:47:24.375Z,7.70
2019-05-06T03:49:54.479Z,7.87
2019-05-06T03:52:24.087Z,9.20
2019-05-06T03:54:53.866Z,8.87
2019-05-06T03:57:23.563Z,9.33
2019-05-06T03:59:53.082Z,9.30
2019-05-06T04:02:24.160Z,9.10
2019-05-06T04:04:56.442Z,9.73
2019-05-06T04:07:24.227Z,8.73
2019-05-06T04:09:53.906Z,8.63
2019-05-06T04:12:23.621Z,8.97
2019-05-06T04:14:54.070Z,9.70
2019-05-06T04:17:32.724Z,9.60
2019-05-06T04:20:09.196Z,8.43
2019-05-06T04:23:06.031Z,9.10
2019-05-06T04:25:44.417Z,9.07
2019-05-06T04:28:16.167Z,8.13
2019-05-06T04:30:45.302Z,8.40
2019-05-06T04:33:17.442Z,8.87
2019-05-06T04:35:45.009Z,9.23
2019-05-06T04:38:14.125Z,8.97
2019-05-06T04:40:43.976Z,9.30
2019-05-06T04:43:13.698Z,10.20
2019-05-06T04:45:43.412Z,11.40
2019-05-06T04:48:14.458Z,14.10
2019-05-06T04:50:44.402Z,11.47
2019-05-06T04:53:13.859Z,11.70
2019-05-06T04:55:43.743Z,11.50
2019-05-06T04:58:13.774Z,10.10
2019-05-06T05:00:44.542Z,9.90
2019-05-06T05:03:22.749Z,9.83
2019-05-06T05:05:53.049Z,10.53
2019-05-06T05:08:25.286Z,8.80
2019-05-06T05:10:59.894Z,8.50
2019-05-06T05:13:36.141Z,10.40
2019-05-06T05:16:33.284Z,9.77
2019-05-06T05:19:05.708Z,10.37
2019-05-06T05:21:34.696Z,9.93
2019-05-06T05:24:03.630Z,9.13
2019-05-06T05:26:32.580Z,9.77
2019-05-06T05:29:02.793Z,9.87
2019-05-06T05:31:33.226Z,9.80
2019-05-06T05:34:02.433Z,9.93
2019-05-06T05:36:32.878Z,10.17
2019-05-06T05:39:03.342Z,9.60
2019-05-06T05:41:33.188Z,9.60
2019-05-06T05:44:11.909Z,9.50
2019-05-06T05:46:40.684Z,9.23
2019-05-06T05:49:47.014Z,9.57
2019-05-06T05:52:15.976Z,8.50
2019-05-06T05:54:45.009Z,8.90
2019-05-06T05:57:13.920Z,8.23
2019-05-06T05:59:42.994Z,7.50
2019-05-06T06:02:12.948Z,8.20
2019-05-06T06:04:54.150Z,8.50
2019-05-06T06:07:12.610Z,9.33
2019-05-06T06:09:49.870Z,9.70
2019-05-06T06:12:18.776Z,10.80
2019-05-06T06:15:15.794Z,13.60
2019-05-06T06:18:03.006Z,10.40
2019-05-06T06:20:49.752Z,10.50
2019-05-06T06:23:24.965Z,8.87
2019-05-06T06:25:53.974Z,9.60
2019-05-06T06:28:23.183Z,9.97
2019-05-06T06:31:04.402Z,9.73
2019-05-06T06:33:33.283Z,9.33
2019-05-06T06:36:23.089Z,8.83
2019-05-06T06:39:08.139Z,8.97
2019-05-06T06:41:37.273Z,10.20
2019-05-06T06:44:09.911Z,9.40
2019-05-06T06:46:39.040Z,7.53
2019-05-06T06:49:08.033Z,9.60
2019-05-06T06:51:37.053Z,11.80
2019-05-06T06:54:06.084Z,10.23
2019-05-06T06:56:46.182Z,8.37
2019-05-06T06:59:22.203Z,10.33
2019-05-06T07:02:12.093Z,7.83
2019-05-06T07:04:47.024Z,10.93
2019-05-06T07:07:17.237Z,9.43
2019-05-06T07:09:46.257Z,8.57
2019-05-06T07:12:15.275Z,8.60
2019-05-06T07:14:44.342Z,10.97
2019-05-06T07:17:13.505Z,9.30
2019-05-06T07:19:47.225Z,7.60
2019-05-06T07:22:16.201Z,7.53
2019-05-06T07:24:45.161Z,7.20
2019-05-06T07:27:18.487Z,6.23
2019-05-06T07:29:48.796Z,6.50
2019-05-06T07:32:18.015Z,6.17
2019-05-06T07:34:47.566Z,7.00
2019-05-06T07:37:16.634Z,7.73
2019-05-06T07:39:45.583Z,6.17
2019-05-06T07:42:19.912Z,6.57
2019-05-06T07:45:12.437Z,5.83
2019-05-06T07:47:49.226Z,5.73
2019-05-06T07:50:18.236Z,4.90
2019-05-06T07:53:04.543Z,6.70
2019-05-06T07:55:33.618Z,5.10
2019-05-06T07:58:03.003Z,3.90
2019-05-06T08:00:32.871Z,4.57
2019-05-06T08:03:02.563Z,4.67
2019-05-06T08:05:32.369Z,3.87
2019-05-06T08:08:03.458Z,3.93
2019-05-06T08:10:33.144Z,3.60
2019-05-06T08:13:02.963Z,3.97
2019-05-06T08:15:32.872Z,9.00
2019-05-06T08:18:03.302Z,4.47
2019-05-06T08:20:38.720Z,4.50
2019-05-06T08:23:13.745Z,4.70
2019-05-06T08:25:47.847Z,3.63
2019-05-06T08:28:16.891Z,3.70
2019-05-06T08:30:45.863Z,3.40
2019-05-06T08:33:14.943Z,3.93
2019-05-06T08:35:44.344Z,3.37
2019-05-06T08:38:14.241Z,3.60
2019-05-06T08:40:43.316Z,4.17
2019-05-06T08:43:13.060Z,3.40
2019-05-06T08:45:42.347Z,4.43
2019-05-06T08:48:13.006Z,3.50
2019-05-06T08:50:55.587Z,4.43
2019-05-06T08:53:43.519Z,3.40
2019-05-06T08:56:16.516Z,4.27
2019-05-06T08:58:46.275Z,6.80
2019-05-06T09:01:42.231Z,8.60
2019-05-06T09:04:13.659Z,5.77
2019-05-06T09:06:43.116Z,3.57
2019-05-06T09:09:13.079Z,3.70
2019-05-06T09:11:43.170Z,3.13
2019-05-06T09:14:13.804Z,3.07
2019-05-06T09:16:50.643Z,3.23
2019-05-06T09:19:18.745Z,3.60
2019-05-06T09:21:47.871Z,3.17
2019-05-06T09:24:16.917Z,4.00
2019-05-06T09:27:14.032Z,2.60
2019-05-06T09:29:48.237Z,2.70
2019-05-06T09:32:23.781Z,3.00
2019-05-06T09:34:54.996Z,2.77
2019-05-06T09:37:24.390Z,3.23
2019-05-06T09:39:53.712Z,2.53
2019-05-06T09:42:23.176Z,2.90
2019-05-06T09:44:54.224Z,3.27
2019-05-06T09:47:48.067Z,3.00
2019-05-06T09:50:19.980Z,3.13
2019-05-06T09:52:49.013Z,3.33
2019-05-06T09:55:25.861Z,3.30
2019-05-06T09:58:05.483Z,3.80
2019-05-06T10:00:38.042Z,3.10
2019-05-06T10:03:07.483Z,2.97
2019-05-06T10:05:36.455Z,3.10
2019-05-06T10:08:05.391Z,2.80
2019-05-06T10:10:34.286Z,2.80
2019-05-06T10:13:03.216Z,3.10
2019-05-06T10:15:32.697Z,2.90
2019-05-06T10:18:08.097Z,2.80
2019-05-06T10:20:38.916Z,2.77
2019-05-06T10:23:07.997Z,3.50
2019-05-06T10:25:36.958Z,2.80
2019-05-06T10:28:09.675Z,3.07
2019-05-06T10:30:38.775Z,2.90
2019-05-06T10:33:11.507Z,2.87
2019-05-06T10:35:42.702Z,2.57
2019-05-06T10:38:32.174Z,2.47
2019-05-06T10:41:07.157Z,2.87
2019-05-06T10:43:42.969Z,2.93
2019-05-06T10:46:13.197Z,3.10
2019-05-06T10:48:42.505Z,2.57
2019-05-06T10:51:18.225Z,3.00
2019-05-06T10:53:47.295Z,2.80
2019-05-06T10:56:49.495Z,3.10
2019-05-06T10:59:05.050Z,2.87
2019-05-06T11:01:38.026Z,2.80
2019-05-06T11:04:07.012Z,4.73
2019-05-06T11:06:35.982Z,3.00
2019-05-06T11:09:07.090Z,2.90
2019-05-06T11:11:38.706Z,3.47
2019-05-06T11:14:06.798Z,2.83
2019-05-06T11:16:35.902Z,2.90
2019-05-06T11:19:05.183Z,3.10
2019-05-06T11:21:34.760Z,3.27
2019-05-06T11:24:06.285Z,5.50
2019-05-06T11:26:34.468Z,5.30
2019-05-06T11:29:08.193Z,2.70
2019-05-06T11:31:54.112Z,3.27
2019-05-06T11:34:45.159Z,3.87
2019-05-06T11:37:46.911Z,3.10
2019-05-06T11:40:09.770Z,3.90
2019-05-06T11:42:38.744Z,4.47
2019-05-06T11:45:07.659Z,3.90
2019-05-06T11:47:36.649Z,5.50
2019-05-06T11:50:06.892Z,5.00
2019-05-06T11:52:35.940Z,3.17
2019-05-06T11:55:05.578Z,3.00
2019-05-06T11:57:35.873Z,3.30
2019-05-06T12:00:05.163Z,3.40
2019-05-06T12:02:34.235Z,3.40
2019-05-06T12:05:03.348Z,3.13
2019-05-06T12:07:33.191Z,3.90
2019-05-06T12:10:02.625Z,3.90
2019-05-06T12:12:31.805Z,3.90
2019-05-06T12:15:03.095Z,4.20
2019-05-06T12:17:31.960Z,3.00
2019-05-06T12:20:03.020Z,3.40
2019-05-06T12:22:37.456Z,2.90
2019-05-06T12:25:11.399Z,3.77
2019-05-06T12:27:44.592Z,3.00
2019-05-06T12:30:14.919Z,4.80
2019-05-06T12:32:53.919Z,4.00
2019-05-06T12:35:22.994Z,3.53
2019-05-06T12:37:55.044Z,3.80
2019-05-06T12:40:24.105Z,3.73
2019-05-06T12:42:56.656Z,4.33
2019-05-06T12:45:39.400Z,3.90
2019-05-06T12:48:13.259Z,3.87
2019-05-06T12:50:43.102Z,3.90
2019-05-06T12:53:13.293Z,3.90
2019-05-06T12:55:43.123Z,3.37
2019-05-06T12:58:13.593Z,4.37
2019-05-06T13:00:44.948Z,3.90
2019-05-06T13:03:13.529Z,4.13
2019-05-06T13:05:42.878Z,4.00
2019-05-06T13:08:18.914Z,3.47
2019-05-06T13:10:42.907Z,3.53
2019-05-06T13:13:12.724Z,3.80
2019-05-06T13:15:43.486Z,3.97
2019-05-06T13:18:12.591Z,4.87
2019-05-06T13:20:49.996Z,3.50
2019-05-06T13:23:34.634Z,4.37
2019-05-06T13:26:07.315Z,4.00
2019-05-06T13:28:39.204Z,5.00
2019-05-06T13:31:19.332Z,4.50
2019-05-06T13:33:56.180Z,4.40
2019-05-06T13:36:25.638Z,13.50
2019-05-06T13:39:09.516Z,4.63
2019-05-06T13:41:25.396Z,5.33
2019-05-06T13:44:09.429Z,5.07
2019-05-06T13:46:41.625Z,3.80
2019-05-06T13:49:24.047Z,3.53
2019-05-06T13:52:12.875Z,3.63
2019-05-06T13:54:42.312Z,7.27
2019-05-06T13:57:12.532Z,5.90
2019-05-06T13:59:44.151Z,7.27
2019-05-06T14:02:40.331Z,4.63
2019-05-06T14:05:09.471Z,4.63
2019-05-06T14:07:38.764Z,4.40
2019-05-06T14:10:07.914Z,3.87
2019-05-06T14:12:36.953Z,4.07
2019-05-06T14:15:06.885Z,3.90
2019-05-06T14:17:36.087Z,5.27
2019-05-06T14:20:05.298Z,5.93
2019-05-06T14:22:34.278Z,4.17
2019-05-06T14:25:25.151Z,6.20
2019-05-06T14:27:58.204Z,4.20
2019-05-06T14:30:44.589Z,4.10
2019-05-06T14:33:15.617Z,4.20
2019-05-06T14:35:44.709Z,3.90
2019-05-06T14:38:13.825Z,4.83
2019-05-06T14:41:07.915Z,3.93
2019-05-06T14:43:35.364Z,4.50
2019-05-06T14:46:04.492Z,4.33
2019-05-06T14:48:33.636Z,4.27
2019-05-06T14:51:02.566Z,5.00
2019-05-06T14:53:33.067Z,5.00
2019-05-06T14:56:07.856Z,5.00
2019-05-06T14:58:36.964Z,5.90
2019-05-06T15:01:05.883Z,5.00
2019-05-06T15:03:34.935Z,5.20
2019-05-06T15:06:03.987Z,4.73
2019-05-06T15:08:33.037Z,4.93
2019-05-06T15:11:03.175Z,5.00
2019-05-06T15:13:32.743Z,5.93
2019-05-06T15:16:03.538Z,6.10
2019-05-06T15:18:33.052Z,5.60
2019-05-06T15:21:29.055Z,5.10
2019-05-06T15:23:32.755Z,6.00
2019-05-06T15:26:03.043Z,5.77
2019-05-06T15:28:33.776Z,5.60
2019-05-06T15:31:12.518Z,5.03
2019-05-06T15:33:44.080Z,6.00
2019-05-06T15:36:22.200Z,5.67
2019-05-06T15:38:52.619Z,5.67
2019-05-06T15:41:22.293Z,6.13
2019-05-06T15:43:51.353Z,6.87
2019-05-06T15:46:22.682Z,6.80
2019-05-06T15:48:53.805Z,7.10
2019-05-06T15:51:34.534Z,9.37
2019-05-06T15:54:05.213Z,7.90
2019-05-06T15:56:34.240Z,9.13
2019-05-06T15:59:03.349Z,7.87
2019-05-06T16:01:33.479Z,9.10
2019-05-06T16:04:03.247Z,7.27
2019-05-06T16:06:33.215Z,6.60
2019-05-06T16:09:03.641Z,7.10
2019-05-06T16:11:33.362Z,7.60
2019-05-06T16:14:03.069Z,6.70
2019-05-06T16:16:33.283Z,7.10
2019-05-06T16:19:04.062Z,6.83
2019-05-06T16:21:33.676Z,7.20
2019-05-06T16:24:13.898Z,6.87
2019-05-06T16:26:45.650Z,7.10
2019-05-06T16:29:13.756Z,6.67
2019-05-06T16:31:42.852Z,7.60
2019-05-06T16:34:12.078Z,7.37
2019-05-06T16:36:43.242Z,9.47
2019-05-06T16:39:12.484Z,8.87
2019-05-06T16:41:42.306Z,7.77
2019-05-06T16:44:12.783Z,7.57
2019-05-06T16:46:42.642Z,8.00
2019-05-06T16:49:14.014Z,7.60
2019-05-06T16:51:44.136Z,7.20
2019-05-06T16:54:13.404Z,10.40
2019-05-06T16:57:02.301Z,8.40
2019-05-06T16:59:33.424Z,7.97
2019-05-06T17:02:06.416Z,7.53
2019-05-06T17:04:46.630Z,7.03
2019-05-06T17:07:15.599Z,8.17
2019-05-06T17:09:44.576Z,7.30
2019-05-06T17:12:13.487Z,7.03
2019-05-06T17:14:42.895Z,7.17
2019-05-06T17:17:12.042Z,8.23
2019-05-06T17:19:42.258Z,8.10
2019-05-06T17:22:12.357Z,8.20
2019-05-06T17:24:42.164Z,6.77
2019-05-06T17:27:12.079Z,7.53
2019-05-06T17:30:02.993Z,6.60
2019-05-06T17:32:35.324Z,7.80
2019-05-06T17:35:04.862Z,7.90
2019-05-06T17:38:10.919Z,9.30
2019-05-06T17:40:40.086Z,6.87
2019-05-06T17:43:09.147Z,7.47
2019-05-06T17:46:03.159Z,6.83
2019-05-06T17:48:45.545Z,7.80
2019-05-06T17:51:16.546Z,8.83
2019-05-06T17:53:48.390Z,7.70
2019-05-06T17:56:17.365Z,8.13
2019-05-06T17:58:46.537Z,8.50
2019-05-06T18:01:17.119Z,9.53
2019-05-06T18:03:46.205Z,8.90
2019-05-06T18:06:15.240Z,12.70
2019-05-06T18:08:44.374Z,9.80
2019-05-06T18:11:13.531Z,8.80
2019-05-06T18:13:42.570Z,9.33
2019-05-06T18:16:13.197Z,9.07
2019-05-06T18:18:42.437Z,9.80
2019-05-06T18:21:12.315Z,9.70
2019-05-06T18:23:41.630Z,10.83
2019-05-06T18:26:10.592Z,9.53
2019-05-06T18:28:39.540Z,10.73
2019-05-06T18:31:08.660Z,13.90
2019-05-06T18:33:37.769Z,9.90
2019-05-06T18:36:06.821Z,9.00
2019-05-06T18:38:35.982Z,12.03
2019-05-06T18:41:04.960Z,9.47
2019-05-06T18:43:34.005Z,9.83
2019-05-06T18:46:03.134Z,10.20
2019-05-06T18:48:35.040Z,9.00
2019-05-06T18:51:03.232Z,10.27
2019-05-06T18:53:33.331Z,8.37
2019-05-06T18:56:03.140Z,9.30
2019-05-06T18:58:32.927Z,9.20
2019-05-06T19:01:04.021Z,8.90
2019-05-06T19:03:42.947Z,9.20
2019-05-06T19:06:12.039Z,9.10
2019-05-06T19:08:56.595Z,8.63
2019-05-06T19:11:25.640Z,10.50
2019-05-06T19:13:54.683Z,8.60
2019-05-06T19:16:23.693Z,8.63
2019-05-06T19:18:52.521Z,8.30
2019-05-06T19:21:24.306Z,8.23
2019-05-06T19:23:54.800Z,7.67
2019-05-06T19:26:23.123Z,8.13
2019-05-06T19:28:52.715Z,7.60
2019-05-06T19:31:22.848Z,8.13
2019-05-06T19:33:52.635Z,8.30
2019-05-06T19:36:23.491Z,8.17
2019-05-06T19:38:52.830Z,8.80
2019-05-06T19:41:22.370Z,9.20
2019-05-06T19:43:52.434Z,10.70
2019-05-06T19:46:21.509Z,9.00
2019-05-06T19:48:52.374Z,8.27
2019-05-06T19:51:22.566Z,9.30
2019-05-06T19:53:51.762Z,9.00
2019-05-06T19:56:22.988Z,8.57
2019-05-06T19:58:52.557Z,8.70
2019-05-06T20:01:22.873Z,9.03
2019-05-06T20:03:52.621Z,7.93
2019-05-06T20:06:38.900Z,9.50
2019-05-06T20:09:39.345Z,9.67
2019-05-06T20:12:13.406Z,10.83
2019-05-06T20:14:42.341Z,8.43
2019-05-06T20:17:12.909Z,10.33
2019-05-06T20:19:42.603Z,9.83
2019-05-06T20:22:13.011Z,9.80
2019-05-06T20:24:42.613Z,9.30
2019-05-06T20:27:13.295Z,10.97
2019-05-06T20:29:42.754Z,12.70
2019-05-06T20:32:12.157Z,13.83
2019-05-06T20:34:42.828Z,11.50
2019-05-06T20:37:12.860Z,10.70
2019-05-06T20:39:43.235Z,9.50
2019-05-06T20:42:12.892Z,8.50
2019-05-06T20:44:43.427Z,8.53
2019-05-06T20:47:13.064Z,7.83
2019-05-06T20:49:43.158Z,8.60
2019-05-06T20:52:12.402Z,10.73
2019-05-06T20:54:42.644Z,11.00
2019-05-06T20:57:12.561Z,11.60
2019-05-06T20:59:42.112Z,9.80
2019-05-06T21:02:12.400Z,8.80
2019-05-06T21:04:43.123Z,9.87
2019-05-06T21:07:12.513Z,9.17
2019-05-06T21:09:43.226Z,9.13
2019-05-06T21:12:12.449Z,8.87
2019-05-06T21:14:42.130Z,9.03
2019-05-06T21:17:12.369Z,9.53
2019-05-06T21:19:41.573Z,8.80
2019-05-06T21:22:13.081Z,8.40
2019-05-06T21:24:43.062Z,8.60
2019-05-06T21:27:12.429Z,8.90
2019-05-06T21:29:42.103Z,7.90
2019-05-06T21:32:11.160Z,8.53
2019-05-06T21:34:40.176Z,8.40
2019-05-06T21:37:09.221Z,10.27
2019-05-06T21:39:38.376Z,9.13
2019-05-06T21:42:07.447Z,9.80
2019-05-06T21:44:36.466Z,10.90
2019-05-06T21:47:05.693Z,9.30
2019-05-06T21:49:34.817Z,10.50
2019-05-06T21:52:03.958Z,12.67
2019-05-06T21:54:33.180Z,10.60
2019-05-06T21:57:03.094Z,9.93
2019-05-06T21:59:32.436Z,10.10
2019-05-06T22:02:01.766Z,10.43
2019-05-06T22:04:32.722Z,10.63
2019-05-06T22:07:03.059Z,10.60
2019-05-06T22:09:32.374Z,10.80
2019-05-06T22:12:02.451Z,10.27
2019-05-06T22:14:32.584Z,9.87
2019-05-06T22:17:03.908Z,9.00
2019-05-06T22:19:32.371Z,10.53
2019-05-06T22:22:09.493Z,10.40
2019-05-06T22:24:58.020Z,9.60
2019-05-06T22:27:29.466Z,9.20
2019-05-06T22:29:58.473Z,9.77
2019-05-06T22:32:27.633Z,9.40
2019-05-06T22:34:56.967Z,9.93
2019-05-06T22:37:25.993Z,10.20
2019-05-06T22:39:55.087Z,8.50
2019-05-06T22:42:24.983Z,9.10
2019-05-06T22:44:54.135Z,9.93
2019-05-06T22:47:23.230Z,9.73
2019-05-06T22:49:54.280Z,9.23
2019-05-06T22:52:22.963Z,10.00
2019-05-06T22:54:52.739Z,8.50
2019-05-06T22:57:23.563Z,9.07
2019-05-06T22:59:52.763Z,8.90
2019-05-06T23:02:27.808Z,9.30
2019-05-06T23:04:58.838Z,8.90
2019-05-06T23:07:27.975Z,9.10
2019-05-06T23:09:57.068Z,9.67
2019-05-06T23:12:26.188Z,9.13
2019-05-06T23:14:55.231Z,8.30
2019-05-06T23:17:24.334Z,9.93
2019-05-06T23:19:53.382Z,8.80
2019-05-06T23:22:22.840Z,9.30
2019-05-06T23:24:52.263Z,9.43
2019-05-06T23:27:23.255Z,9.60
2019-05-06T23:29:52.677Z,9.50
2019-05-06T23:32:22.898Z,9.37
2019-05-06T23:34:52.446Z,9.50
2019-05-06T23:37:22.872Z,10.00
2019-05-06T23:40:33.102Z,9.57
2019-05-06T23:43:37.918Z,8.97
2019-05-06T23:46:42.638Z,9.27
2019-05-06T23:49:47.400Z,9.33
2019-05-06T23:52:52.122Z,10.83
2019-05-06T23:55:56.931Z,9.50
2019-05-06T23:58:24.513Z,9.23
